Bethel, North Carolina
Current Conditions -  °F | °C
As of 8:35 PM on Sunday 23 Nov 2014 (Local Time) from KPGV Reporting Station
Broken Clouds Broken Clouds  
Wind Chill: 61°   Ceiling: 1500
Heat Index: 61°   Visibility: 10mi
Dew Point: 61°   Wind: 6mph
Humidity: 100%   Direction: 130°SE
Pressure: 29.94"   Gusts: NA
Location:  35.81°N, 77.38°W
Report Text: KPGV 240135Z AUTO 13005KT 10SM SCT008 BKN015 BKN027 16/16 A2994 RMK AO2
Loading
Personal Weather Stations






























Interactive Weather Map New forecast layout! Learn more

10-Day Weather Forecast

Advertisements
Track Severe Weather on mobile